Time;durP1;ratioP1;P1;durP2;ratioP2;P2;SDS_P1;SDS_P2;PMS_P1;PMS_P2;Temp;Humidity;BMP_temperature;BMP_pressure;BME280_temperature;BME280_humidity;BME280_pressure;Samples;Min_cycle;Max_cycle;Signal;HPM_P1;HPM_P2
2021/12/17 00:05:09;;;;;;;47.67;34.30;;;22.10;81.30;;;;;;1824530;78;21641;-81
2021/12/17 00:07:35;;;;;;;52.03;33.15;;;22.20;81.10;;;;;;1829329;78;21574;-82
2021/12/17 00:10:08;;;;;;;47.85;32.58;;;22.30;79.90;;;;;;1814092;78;21164;-85
2021/12/17 00:12:39;;;;;;;48.40;31.48;;;22.30;80.40;;;;;;1833216;78;21088;-84
2021/12/17 00:15:10;;;;;;;48.95;32.73;;;22.40;80.40;;;;;;1824773;78;21234;-70
2021/12/17 00:17:51;;;;;;;46.23;32.85;;;22.50;80.20;;;;;;1815830;78;21184;-69
2021/12/17 00:48:53;;;;;;;36.45;23.62;;;23.20;80.40;;;;;;1842501;77;21067;-71
2021/12/17 00:53:26;;;;;;;28.50;21.17;;;23.30;80.50;;;;;;1850737;77;21719;-71
2021/12/17 00:55:56;;;;;;;29.65;20.62;;;23.40;80.20;;;;;;1839876;77;21188;-72
2021/12/17 00:58:27;;;;;;;28.85;20.50;;;23.40;80.40;;;;;;1838390;77;21201;-72
2021/12/17 01:00:57;;;;;;;27.60;20.77;;;23.40;80.20;;;;;;1846946;77;21670;-73
2021/12/17 01:03:28;;;;;;;29.32;19.65;;;23.40;80.30;;;;;;1846989;77;22041;-72
2021/12/17 01:05:59;;;;;;;29.95;20.32;;;23.50;80.40;;;;;;1845137;77;21669;-70
2021/12/17 01:08:30;;;;;;;31.55;20.95;;;23.50;80.30;;;;;;1844335;77;21083;-72
2021/12/17 01:11:01;;;;;;;30.88;20.48;;;23.60;80.40;;;;;;1845646;77;21086;-72
2021/12/17 01:13:34;;;;;;;28.27;20.37;;;23.60;80.30;;;;;;1852976;76;21201;-72
2021/12/17 01:16:06;;;;;;;28.60;19.98;;;23.60;80.60;;;;;;1842211;77;21169;-71
2021/12/17 01:18:57;;;;;;;29.25;20.90;;;23.70;80.50;;;;;;1853004;77;21102;-71
2021/12/17 01:36:25;;;;;;;24.92;17.23;;;24.10;79.90;;;;;;1839152;77;21204;-79
2021/12/17 01:44:06;;;;;;;24.20;15.38;;;24.20;79.50;;;;;;1826882;78;21167;-79
2021/12/17 01:46:39;;;;;;;23.80;15.70;;;24.30;79.50;;;;;;1813321;77;21284;-79
2021/12/17 01:59:17;;;;;;;19.80;12.85;;;24.50;79.10;;;;;;1817170;78;21248;-71
2021/12/17 01:59:37;;;;;;;17.45;11.15;;;24.60;79.20;;;;;;1816719;78;21716;-71
2021/12/17 02:02:00;;;;;;;18.23;11.73;;;24.60;78.80;;;;;;1820910;77;21178;-71
2021/12/17 02:04:31;;;;;;;16.27;11.22;;;24.60;78.90;;;;;;1810452;78;21116;-72
2021/12/17 02:07:03;;;;;;;16.65;11.57;;;24.70;79.10;;;;;;1818600;78;21493;-71
2021/12/17 02:23:09;;;;;;;18.20;12.37;;;24.90;78.50;;;;;;1817381;78;21135;-71
2021/12/17 02:32:26;;;;;;;21.37;13.35;;;25.10;78.30;;;;;;1811650;78;21171;-80
2021/12/17 02:37:28;;;;;;;22.77;12.58;;;25.20;78.20;;;;;;1808964;78;21140;-81
2021/12/17 02:47:39;;;;;;;21.62;13.40;;;25.30;77.40;;;;;;1847356;77;21135;-79
2021/12/17 02:50:12;;;;;;;20.85;12.53;;;25.30;77.20;;;;;;1841206;77;21154;-78
2021/12/17 02:52:43;;;;;;;20.15;14.60;;;25.30;77.10;;;;;;1841890;77;21174;-81
2021/12/17 02:55:15;;;;;;;22.62;15.10;;;25.30;77.20;;;;;;1851841;77;21224;-83
2021/12/17 02:57:46;;;;;;;25.45;14.43;;;25.40;77.30;;;;;;1836626;77;21142;-83
2021/12/17 03:00:18;;;;;;;18.92;13.40;;;25.40;77.60;;;;;;1844233;77;21196;-83
2021/12/17 03:02:50;;;;;;;19.62;14.38;;;25.40;77.60;;;;;;1843088;77;21134;-83
2021/12/17 03:05:22;;;;;;;21.73;14.78;;;25.50;77.70;;;;;;1835973;77;21142;-83
2021/12/17 03:07:54;;;;;;;18.90;14.10;;;25.50;77.70;;;;;;1842920;77;21633;-83
2021/12/17 03:10:26;;;;;;;25.32;13.78;;;25.60;77.00;;;;;;1836883;77;21217;-81
2021/12/17 03:13:01;;;;;;;17.55;11.45;;;25.60;76.70;;;;;;1839788;77;21118;-83
2021/12/17 03:15:38;;;;;;;18.42;12.00;;;25.70;76.10;;;;;;1843971;77;21663;-83
2021/12/17 03:26:00;;;;;;;10.10;7.92;;;26.20;74.10;;;;;;1838468;77;21126;-83
2021/12/17 03:28:31;;;;;;;11.53;7.12;;;26.40;73.60;;;;;;1839132;77;21158;-84
2021/12/17 03:31:03;;;;;;;13.88;7.22;;;26.50;73.10;;;;;;1840583;77;21194;-84
2021/12/17 03:33:35;;;;;;;11.15;7.37;;;26.60;72.60;;;;;;1840126;77;21142;-83
2021/12/17 03:36:06;;;;;;;12.98;7.08;;;26.70;72.00;;;;;;1837492;77;21202;-83
2021/12/17 03:38:37;;;;;;;11.45;6.53;;;26.80;71.20;;;;;;1841272;77;21547;-83
2021/12/17 03:41:18;;;;;;;17.00;7.42;;;26.80;70.40;;;;;;1828736;78;21572;-86
2021/12/17 03:43:41;;;;;;;9.58;7.08;;;26.90;70.70;;;;;;1819524;78;21610;-84
2021/12/17 03:46:12;;;;;;;8.73;6.72;;;27.00;70.30;;;;;;1829439;78;21126;-83
2021/12/17 03:48:43;;;;;;;11.60;6.42;;;27.10;70.30;;;;;;1820950;78;21091;-83
2021/12/17 03:51:16;;;;;;;10.03;6.72;;;27.20;70.10;;;;;;1827850;78;21202;-81
2021/12/17 03:53:49;;;;;;;8.48;6.25;;;27.30;69.50;;;;;;1823493;78;21279;-80
2021/12/17 03:56:20;;;;;;;13.28;6.85;;;27.50;69.60;;;;;;1827256;77;21151;-80
2021/12/17 03:58:54;;;;;;;14.65;6.25;;;27.50;69.40;;;;;;1821916;78;21150;-80
2021/12/17 04:01:26;;;;;;;9.95;6.30;;;27.70;68.90;;;;;;1822270;78;21151;-81
2021/12/17 04:03:57;;;;;;;8.18;5.33;;;27.90;68.80;;;;;;1826517;78;21099;-81
2021/12/17 04:06:28;;;;;;;9.78;5.35;;;27.90;67.80;;;;;;1826783;78;21060;-83
2021/12/17 04:08:59;;;;;;;9.08;5.58;;;28.00;67.40;;;;;;1828807;78;21674;-82
2021/12/17 04:11:31;;;;;;;8.15;5.90;;;28.10;67.30;;;;;;1825739;78;21603;-82
2021/12/17 04:14:02;;;;;;;7.08;4.90;;;28.20;67.00;;;;;;1836927;78;21229;-82
2021/12/17 04:16:34;;;;;;;7.25;5.20;;;28.30;66.30;;;;;;1824666;78;21186;-81
2021/12/17 04:19:05;;;;;;;8.38;5.08;;;28.40;66.40;;;;;;1824449;78;21621;-81
2021/12/17 04:21:36;;;;;;;8.13;4.70;;;28.40;65.50;;;;;;1839962;78;21181;-80
2021/12/17 04:24:07;;;;;;;8.68;4.50;;;28.50;65.40;;;;;;1840127;78;21151;-80
2021/12/17 04:26:37;;;;;;;7.20;4.87;;;28.50;65.40;;;;;;1839827;77;21166;-79
2021/12/17 04:29:09;;;;;;;13.28;5.05;;;28.60;65.40;;;;;;1839848;78;21139;-79
2021/12/17 04:31:40;;;;;;;7.58;4.95;;;28.70;64.90;;;;;;1839950;78;21228;-79
2021/12/17 04:34:12;;;;;;;7.90;5.25;;;28.80;65.00;;;;;;1839935;78;21143;-79
2021/12/17 04:36:45;;;;;;;7.15;5.30;;;28.80;64.80;;;;;;1840026;78;21694;-79
2021/12/17 04:39:17;;;;;;;7.50;4.42;;;28.80;63.70;;;;;;1840071;78;21138;-79
2021/12/17 04:42:04;;;;;;;8.25;4.75;;;28.90;64.10;;;;;;1831445;76;21108;-78
2021/12/17 04:44:28;;;;;;;9.88;5.17;;;28.90;64.00;;;;;;1829709;78;21197;-79
2021/12/17 04:59:36;;;;;;;9.65;4.42;;;29.30;63.00;;;;;;1834829;78;21689;-79
2021/12/17 05:02:06;;;;;;;8.60;4.40;;;29.40;62.90;;;;;;1833069;78;21092;-79
2021/12/17 05:04:37;;;;;;;7.62;4.60;;;29.40;62.70;;;;;;1836912;78;21147;-78
2021/12/17 05:07:11;;;;;;;6.75;4.87;;;29.40;62.30;;;;;;1836237;78;21181;-78
2021/12/17 05:19:52;;;;;;;5.90;3.83;;;29.40;61.30;;;;;;1811579;78;21192;-78
2021/12/17 05:22:24;;;;;;;8.33;4.50;;;29.20;61.60;;;;;;1820164;78;21715;-79
2021/12/17 05:24:54;;;;;;;8.03;3.92;;;29.10;62.10;;;;;;1836738;78;21108;-78
2021/12/17 05:27:25;;;;;;;6.42;4.35;;;29.00;62.90;;;;;;1836768;78;21181;-79
2021/12/17 05:29:56;;;;;;;6.60;4.53;;;29.00;62.60;;;;;;1836516;78;21143;-79
2021/12/17 05:32:27;;;;;;;6.22;4.08;;;29.00;62.60;;;;;;1831555;78;21584;-80
2021/12/17 05:34:58;;;;;;;6.55;4.50;;;28.90;62.00;;;;;;1786554;80;21264;-80
2021/12/17 05:37:29;;;;;;;6.40;4.35;;;28.80;62.40;;;;;;1820486;79;21544;-79
2021/12/17 05:39:59;;;;;;;7.15;4.28;;;28.80;62.80;;;;;;1820377;79;21528;-79
2021/12/17 05:42:30;;;;;;;6.47;3.98;;;28.80;62.80;;;;;;1810435;79;21535;-79
2021/12/17 05:45:09;;;;;;;5.70;3.85;;;28.80;62.80;;;;;;1813138;79;21241;-79
2021/12/17 05:47:35;;;;;;;8.00;4.25;;;28.70;63.20;;;;;;1820845;77;21096;-79
2021/12/17 05:50:06;;;;;;;6.65;4.15;;;28.70;63.20;;;;;;1821078;79;21659;-79
2021/12/17 05:52:37;;;;;;;7.92;4.80;;;28.80;63.50;;;;;;1821104;79;21205;-79
2021/12/17 05:55:09;;;;;;;8.00;4.92;;;28.90;62.90;;;;;;1811526;79;21548;-79
2021/12/17 05:57:39;;;;;;;8.48;4.92;;;29.00;62.40;;;;;;1804551;79;21084;-79
2021/12/17 06:00:11;;;;;;;6.05;4.50;;;29.10;62.70;;;;;;1810248;79;21170;-79
2021/12/17 06:02:42;;;;;;;8.13;4.50;;;29.10;62.00;;;;;;1810197;79;21139;-79
2021/12/17 06:05:13;;;;;;;9.93;4.47;;;29.00;62.00;;;;;;1808590;79;21167;-79
2021/12/17 06:07:45;;;;;;;6.90;4.05;;;29.00;62.60;;;;;;1805788;79;21129;-78
2021/12/17 06:10:16;;;;;;;8.90;3.90;;;28.90;62.40;;;;;;1803686;79;21623;-78
2021/12/17 06:12:47;;;;;;;8.25;4.03;;;28.80;62.40;;;;;;1806821;79;21421;-78
2021/12/17 06:15:20;;;;;;;6.25;3.90;;;28.80;62.50;;;;;;1816365;79;21151;-78
2021/12/17 06:17:52;;;;;;;5.08;3.52;;;28.80;62.50;;;;;;1805533;79;21190;-80
2021/12/17 06:20:24;;;;;;;8.08;4.00;;;28.70;62.90;;;;;;1805260;79;21190;-79
2021/12/17 06:22:55;;;;;;;5.72;3.62;;;28.70;62.70;;;;;;1806648;79;21163;-79
2021/12/17 06:25:26;;;;;;;6.28;3.85;;;28.70;62.90;;;;;;1809751;79;21147;-79
2021/12/17 06:27:57;;;;;;;14.00;3.87;;;28.70;62.60;;;;;;1804899;79;21101;-79
2021/12/17 06:30:29;;;;;;;6.92;4.15;;;28.80;62.90;;;;;;1804828;79;21595;-78
2021/12/17 06:32:59;;;;;;;12.35;3.72;;;28.90;62.50;;;;;;1805330;77;21555;-79
2021/12/17 06:35:30;;;;;;;4.72;3.25;;;29.00;61.70;;;;;;1817305;79;21108;-79
2021/12/17 06:38:04;;;;;;;4.28;3.40;;;29.20;61.40;;;;;;1807437;79;21217;-79
2021/12/17 06:40:33;;;;;;;5.30;3.17;;;29.30;61.30;;;;;;1806901;79;21216;-79
2021/12/17 06:43:04;;;;;;;5.90;3.58;;;29.30;60.90;;;;;;1809444;79;21174;-79
2021/12/17 06:45:57;;;;;;;4.60;3.50;;;29.30;61.20;;;;;;1826045;78;21723;-79
2021/12/17 06:48:09;;;;;;;10.13;3.77;;;29.20;61.90;;;;;;1815959;78;21168;-79
2021/12/17 06:58:45;;;;;;;4.95;3.55;;;29.30;61.00;;;;;;1824158;78;21160;-79
2021/12/17 07:10:58;;;;;;;6.55;3.55;;;29.20;61.80;;;;;;1819329;78;21644;-80
2021/12/17 07:21:24;;;;;;;3.77;3.08;;;29.40;59.80;;;;;;1832357;78;21231;-78
2021/12/17 07:34:12;;;;;;;5.08;2.80;;;29.20;60.30;;;;;;1831733;77;21210;-79
2021/12/17 07:39:05;;;;;;;4.45;3.22;;;29.10;60.20;;;;;;1833304;77;21165;-80
2021/12/17 07:41:36;;;;;;;5.78;3.12;;;29.10;60.50;;;;;;1820082;77;21114;-80
2021/12/17 07:44:07;;;;;;;4.47;3.08;;;29.10;60.50;;;;;;1828827;78;21684;-80
2021/12/17 07:46:38;;;;;;;6.53;3.37;;;29.10;60.70;;;;;;1814627;79;21543;-79
2021/12/17 07:49:09;;;;;;;5.15;3.37;;;29.10;60.60;;;;;;1814444;79;21306;-80
2021/12/17 07:51:39;;;;;;;5.67;3.17;;;29.30;60.90;;;;;;1814406;79;21242;-80
2021/12/17 07:54:10;;;;;;;6.53;2.90;;;29.30;60.40;;;;;;1813692;79;21109;-79
2021/12/17 07:56:43;;;;;;;4.97;2.87;;;29.40;60.00;;;;;;1785348;79;21183;-79
2021/12/17 07:59:14;;;;;;;6.12;3.80;;;29.30;59.80;;;;;;1806142;79;21538;-79
2021/12/17 08:01:45;;;;;;;4.17;3.20;;;29.30;59.70;;;;;;1804511;79;21149;-79
2021/12/17 08:04:16;;;;;;;4.83;3.37;;;29.30;59.60;;;;;;1801880;79;21180;-80
2021/12/17 08:06:47;;;;;;;5.20;3.58;;;29.30;60.10;;;;;;1810065;79;21715;-80
2021/12/17 08:09:20;;;;;;;7.62;3.42;;;29.20;60.50;;;;;;1808213;79;21472;-80
2021/12/17 08:11:56;;;;;;;6.05;3.47;;;29.20;60.50;;;;;;1811006;79;21686;-80
2021/12/17 08:14:23;;;;;;;5.53;3.75;;;29.20;60.70;;;;;;1807293;79;21596;-80
2021/12/17 08:17:17;;;;;;;5.25;3.08;;;29.20;60.70;;;;;;1796977;78;21104;-79
2021/12/17 08:32:07;;;;;;;5.20;3.08;;;29.00;60.90;;;;;;1808372;79;21202;-79
2021/12/17 08:34:39;;;;;;;6.45;3.30;;;29.00;60.70;;;;;;1814378;79;21191;-80
2021/12/17 08:37:10;;;;;;;5.30;3.62;;;29.00;60.20;;;;;;1813029;79;21212;-79
2021/12/17 08:39:43;;;;;;;4.12;3.30;;;29.00;60.30;;;;;;1810616;79;21163;-79
2021/12/17 08:42:14;;;;;;;4.58;3.20;;;29.00;60.20;;;;;;1814374;79;21159;-79
2021/12/17 08:44:45;;;;;;;4.85;2.98;;;29.00;60.40;;;;;;1800550;79;21637;-80
2021/12/17 08:47:15;;;;;;;5.28;3.33;;;29.00;60.60;;;;;;1801710;79;21200;-80
2021/12/17 08:49:48;;;;;;;7.35;3.55;;;28.90;60.50;;;;;;1813401;79;21154;-80
2021/12/17 08:52:19;;;;;;;4.97;3.20;;;28.90;60.10;;;;;;1814244;79;21164;-81
2021/12/17 08:54:54;;;;;;;4.87;3.40;;;28.90;60.70;;;;;;1804608;79;21216;-79
2021/12/17 08:57:25;;;;;;;5.30;3.75;;;28.90;60.50;;;;;;1800700;79;21149;-80
2021/12/17 08:59:57;;;;;;;6.42;3.25;;;28.90;60.70;;;;;;1800272;79;21549;-80
2021/12/17 09:02:28;;;;;;;6.08;3.35;;;28.90;60.30;;;;;;1813610;79;21117;-79
2021/12/17 09:04:58;;;;;;;5.83;3.90;;;28.90;60.50;;;;;;1814353;79;21198;-81
2021/12/17 09:07:29;;;;;;;7.03;4.08;;;28.90;60.80;;;;;;1812261;79;21386;-75
2021/12/17 09:10:04;;;;;;;5.85;4.00;;;28.90;60.90;;;;;;1798676;79;21234;-71
2021/12/17 09:12:32;;;;;;;8.38;4.50;;;28.90;60.90;;;;;;1803534;79;21202;-72
2021/12/17 09:15:03;;;;;;;6.97;4.72;;;28.80;61.00;;;;;;1805079;79;21317;-71
2021/12/17 09:17:35;;;;;;;7.37;4.60;;;28.80;61.30;;;;;;1776507;80;21136;-72
2021/12/17 09:20:07;;;;;;;6.87;4.78;;;28.80;61.40;;;;;;1804746;79;21605;-70
2021/12/17 09:22:38;;;;;;;9.08;4.90;;;28.70;61.10;;;;;;1809761;79;21546;-70
2021/12/17 09:25:09;;;;;;;12.47;8.28;;;28.80;61.40;;;;;;1793285;79;21630;-70
2021/12/17 09:27:40;;;;;;;13.13;5.50;;;28.80;61.60;;;;;;1801503;79;21172;-71
2021/12/17 09:30:13;;;;;;;10.88;5.53;;;28.70;61.40;;;;;;1794694;79;21173;-69
2021/12/17 09:35:24;;;;;;;11.08;7.25;;;28.70;61.80;;;;;;1814455;78;21188;-69
2021/12/17 09:37:54;;;;;;;16.80;7.70;;;28.70;62.00;;;;;;1813359;79;21769;-69
2021/12/17 09:40:25;;;;;;;13.38;7.58;;;28.70;62.00;;;;;;1814744;79;21152;-71
2021/12/17 09:42:56;;;;;;;13.50;6.58;;;28.70;62.30;;;;;;1809479;79;21134;-70
2021/12/17 09:45:27;;;;;;;19.27;7.87;;;28.60;62.30;;;;;;1809474;78;21192;-72
2021/12/17 09:47:58;;;;;;;9.70;6.00;;;28.60;62.30;;;;;;1814728;79;21134;-82
2021/12/17 09:50:29;;;;;;;9.43;6.10;;;28.60;62.50;;;;;;1820557;79;21093;-79
2021/12/17 09:53:00;;;;;;;12.63;7.00;;;28.60;62.70;;;;;;1813960;79;21143;-82
2021/12/17 09:55:31;;;;;;;13.15;8.68;;;28.60;62.80;;;;;;1801644;79;21393;-81
2021/12/17 09:58:02;;;;;;;11.55;8.15;;;28.50;62.70;;;;;;1819846;78;21242;-84
2021/12/17 10:00:32;;;;;;;17.60;11.55;;;28.50;62.90;;;;;;1817639;79;21125;-82
2021/12/17 10:03:05;;;;;;;13.58;9.18;;;28.50;63.20;;;;;;1815477;79;21081;-82
2021/12/17 10:05:37;;;;;;;16.10;9.88;;;28.50;63.30;;;;;;1814440;79;21192;-83
2021/12/17 10:08:10;;;;;;;14.93;8.78;;;28.40;63.40;;;;;;1804984;79;22297;-81
2021/12/17 10:10:44;;;;;;;14.68;8.40;;;28.40;63.60;;;;;;1799274;77;21185;-81
2021/12/17 10:13:17;;;;;;;16.82;9.73;;;28.40;63.90;;;;;;1820989;77;21166;-82
2021/12/17 10:15:50;;;;;;;14.90;9.75;;;28.40;64.00;;;;;;1796760;79;21138;-82
2021/12/17 10:18:23;;;;;;;14.83;8.98;;;28.40;64.00;;;;;;1810617;78;21167;-81
2021/12/17 10:20:55;;;;;;;15.68;8.15;;;28.40;64.20;;;;;;1816678;78;21164;-81
2021/12/17 10:23:28;;;;;;;14.58;7.55;;;28.30;64.30;;;;;;1815750;78;21164;-82
2021/12/17 10:26:00;;;;;;;14.80;7.70;;;28.30;64.30;;;;;;1760611;80;21147;-81
2021/12/17 10:28:36;;;;;;;13.83;7.67;;;28.30;64.60;;;;;;1770312;80;21179;-82
2021/12/17 10:31:07;;;;;;;12.93;7.97;;;28.30;64.70;;;;;;1811187;78;21131;-80
2021/12/17 10:33:38;;;;;;;13.75;7.53;;;28.20;64.80;;;;;;1758451;81;21140;-81
2021/12/17 10:36:10;;;;;;;13.70;7.53;;;28.20;64.90;;;;;;1816710;79;21161;-81
2021/12/17 10:38:44;;;;;;;17.35;7.92;;;28.20;65.00;;;;;;1811372;78;21176;-81
2021/12/17 10:41:17;;;;;;;11.00;7.50;;;28.20;65.20;;;;;;1815083;78;21167;-80
2021/12/17 10:43:54;;;;;;;9.35;7.28;;;28.20;65.30;;;;;;1819086;79;21133;-82
2021/12/17 10:46:26;;;;;;;12.70;8.20;;;28.20;65.30;;;;;;1817979;78;21145;-82
2021/12/17 10:54:06;;;;;;;15.25;10.05;;;28.10;65.70;;;;;;1804363;78;21654;-81
2021/12/17 10:56:39;;;;;;;25.12;11.15;;;28.10;65.80;;;;;;1808707;79;21799;-80
2021/12/17 10:59:13;;;;;;;15.70;11.30;;;28.00;65.80;;;;;;1806859;79;21155;-80
2021/12/17 11:01:46;;;;;;;14.98;10.93;;;28.00;65.90;;;;;;1811532;78;21682;-80
2021/12/17 11:04:20;;;;;;;20.82;12.05;;;28.00;66.10;;;;;;1810195;78;21201;-79
2021/12/17 11:06:54;;;;;;;19.80;11.95;;;28.00;66.10;;;;;;1810216;78;21123;-79
2021/12/17 11:09:27;;;;;;;14.68;10.88;;;28.00;66.40;;;;;;1786560;79;21119;-80
2021/12/17 11:12:07;;;;;;;16.67;11.38;;;28.00;66.50;;;;;;1779942;78;21173;-79
2021/12/17 11:14:34;;;;;;;30.68;21.12;;;28.00;66.50;;;;;;1811679;79;21636;-81
2021/12/17 11:17:05;;;;;;;24.82;15.23;;;27.90;66.50;;;;;;1803724;79;21577;-80
2021/12/17 11:19:37;;;;;;;21.52;12.73;;;27.90;66.60;;;;;;1807395;79;21552;-80
2021/12/17 11:22:08;;;;;;;17.75;11.90;;;27.90;66.70;;;;;;1801052;79;21455;-80
2021/12/17 11:24:39;;;;;;;19.02;11.03;;;27.90;66.80;;;;;;1810269;79;21128;-81
2021/12/17 11:27:10;;;;;;;16.35;10.65;;;27.90;66.80;;;;;;1811914;79;21163;-81
2021/12/17 11:29:43;;;;;;;19.25;10.80;;;27.90;66.90;;;;;;1788297;79;21151;-78
2021/12/17 11:32:14;;;;;;;14.18;10.32;;;27.80;67.00;;;;;;1782626;79;21151;-80
2021/12/17 11:34:45;;;;;;;15.45;10.03;;;27.80;67.00;;;;;;1782239;79;21196;-80
2021/12/17 11:37:17;;;;;;;17.73;9.08;;;27.80;67.10;;;;;;1799847;79;21205;-79
2021/12/17 11:39:50;;;;;;;13.08;8.90;;;27.80;67.20;;;;;;1811410;79;21246;-78
2021/12/17 11:42:25;;;;;;;15.80;10.90;;;27.80;67.30;;;;;;1811668;77;21147;-80
2021/12/17 11:47:34;;;;;;;16.73;12.10;;;27.70;67.70;;;;;;1802953;78;21087;-79
2021/12/17 11:50:07;;;;;;;19.10;10.95;;;27.70;67.70;;;;;;1760179;80;21602;-80
2021/12/17 11:52:40;;;;;;;17.55;10.60;;;27.70;67.80;;;;;;1805169;79;22058;-80
2021/12/17 11:55:14;;;;;;;16.67;9.93;;;27.70;67.90;;;;;;1792398;79;21097;-80
2021/12/17 11:57:44;;;;;;;17.07;9.90;;;27.70;68.10;;;;;;1783046;80;21147;-80
2021/12/17 12:00:17;;;;;;;14.15;9.18;;;27.60;68.10;;;;;;1787144;78;21123;-80
2021/12/17 12:02:51;;;;;;;14.78;9.35;;;27.60;68.10;;;;;;1755478;81;21190;-80
2021/12/17 12:05:24;;;;;;;18.73;9.10;;;27.60;68.10;;;;;;1783971;80;21049;-80
2021/12/17 12:07:58;;;;;;;13.30;8.28;;;27.60;68.20;;;;;;1754560;81;21705;-80
2021/12/17 12:10:30;;;;;;;17.57;8.73;;;27.50;68.10;;;;;;1788624;79;21148;-79
2021/12/17 12:13:01;;;;;;;15.50;8.73;;;27.50;68.30;;;;;;1767512;79;21153;-80
2021/12/17 12:15:33;;;;;;;16.10;8.35;;;27.50;68.30;;;;;;1760340;80;21219;-79
2021/12/17 12:18:07;;;;;;;15.08;8.28;;;27.50;68.40;;;;;;1799663;78;21086;-80
2021/12/17 12:20:58;;;;;;;13.40;8.93;;;27.40;68.20;;;;;;1752287;80;21167;-80
2021/12/17 12:23:30;;;;;;;15.30;8.55;;;27.40;68.20;;;;;;1852117;77;21691;-80
2021/12/17 12:26:03;;;;;;;20.00;9.53;;;27.40;68.20;;;;;;1874404;76;21098;-78
2021/12/17 12:28:36;;;;;;;15.85;9.40;;;27.40;68.30;;;;;;1891267;76;21565;-79
2021/12/17 12:31:09;;;;;;;15.08;9.95;;;27.40;68.40;;;;;;1884102;75;21102;-81
2021/12/17 12:33:42;;;;;;;19.70;10.48;;;27.30;68.60;;;;;;1886601;76;21570;-80
2021/12/17 12:36:14;;;;;;;18.10;11.10;;;27.30;68.70;;;;;;1882028;76;21601;-81
2021/12/17 12:38:45;;;;;;;17.00;10.50;;;27.30;68.60;;;;;;1884064;75;21179;-81
2021/12/17 12:41:16;;;;;;;19.50;9.83;;;27.30;68.60;;;;;;1873907;76;21173;-80
2021/12/17 12:43:48;;;;;;;13.62;9.30;;;27.20;68.30;;;;;;1883079;76;21105;-80
2021/12/17 12:46:22;;;;;;;17.35;9.85;;;27.20;68.00;;;;;;1890419;76;21079;-80
2021/12/17 12:48:52;;;;;;;17.82;9.18;;;27.10;67.80;;;;;;1877848;75;21121;-80
2021/12/17 12:51:25;;;;;;;14.80;9.80;;;27.10;67.80;;;;;;1864182;76;21657;-80
2021/12/17 12:53:58;;;;;;;14.98;9.13;;;27.10;67.70;;;;;;1890689;74;21125;-81
2021/12/17 12:56:31;;;;;;;12.93;8.20;;;27.00;67.60;;;;;;1870518;76;21116;-80
2021/12/17 12:59:03;;;;;;;11.33;7.90;;;27.00;67.60;;;;;;1854086;76;21156;-82
2021/12/17 13:01:34;;;;;;;13.95;8.43;;;27.00;67.40;;;;;;1872881;76;21534;-77
2021/12/17 13:04:07;;;;;;;16.82;8.80;;;26.90;67.20;;;;;;1885622;76;21542;-77
2021/12/17 13:06:39;;;;;;;11.65;8.55;;;26.90;67.20;;;;;;1890735;76;21148;-76
2021/12/17 13:09:09;;;;;;;13.18;8.20;;;26.90;67.20;;;;;;1887861;75;21573;-76
2021/12/17 13:11:42;;;;;;;14.45;7.97;;;26.90;67.20;;;;;;1887231;75;21126;-77
2021/12/17 13:14:18;;;;;;;20.75;8.55;;;26.80;67.30;;;;;;1890017;75;21787;-79
2021/12/17 13:16:54;;;;;;;15.45;8.70;;;26.80;67.30;;;;;;1889133;75;21167;-77
2021/12/17 13:24:25;;;;;;;11.78;8.28;;;26.70;67.30;;;;;;1891747;76;21334;-78
2021/12/17 13:26:57;;;;;;;13.85;8.23;;;26.70;67.40;;;;;;1894714;75;21976;-77
2021/12/17 13:29:32;;;;;;;12.50;8.23;;;26.70;67.50;;;;;;1893520;76;21187;-78
2021/12/17 13:32:06;;;;;;;12.45;8.23;;;26.70;67.60;;;;;;1893068;76;21155;-76
2021/12/17 13:34:37;;;;;;;13.80;8.83;;;26.70;67.60;;;;;;1892346;74;21594;-75
2021/12/17 13:37:10;;;;;;;11.38;8.70;;;26.60;68.60;;;;;;1892182;76;21139;-78
2021/12/17 13:39:43;;;;;;;14.35;9.10;;;26.60;68.80;;;;;;1892433;76;21137;-78
2021/12/17 13:42:17;;;;;;;16.00;10.03;;;26.60;68.00;;;;;;1893658;76;21650;-76
2021/12/17 13:44:51;;;;;;;15.05;9.45;;;26.50;68.10;;;;;;1894937;76;21166;-76
2021/12/17 13:47:25;;;;;;;15.70;9.55;;;26.50;68.20;;;;;;1879627;76;21562;-77
2021/12/17 13:49:58;;;;;;;14.03;9.48;;;26.50;68.30;;;;;;1895230;76;21634;-78
2021/12/17 13:52:32;;;;;;;12.35;9.90;;;26.40;68.40;;;;;;1893458;74;21201;-77
2021/12/17 13:55:06;;;;;;;12.53;9.45;;;26.40;68.40;;;;;;1893492;76;21150;-77
2021/12/17 13:57:37;;;;;;;16.30;10.58;;;26.40;68.60;;;;;;1883734;76;21678;-77
2021/12/17 14:00:09;;;;;;;12.13;10.53;;;26.40;68.70;;;;;;1856144;77;21638;-76
2021/12/17 14:02:42;;;;;;;13.30;10.32;;;26.30;68.80;;;;;;1838433;78;21137;-78
2021/12/17 14:05:15;;;;;;;16.12;10.50;;;26.30;68.90;;;;;;1894924;76;21155;-78
2021/12/17 14:07:49;;;;;;;18.17;11.43;;;26.30;69.00;;;;;;1894831;76;21732;-78
2021/12/17 14:10:23;;;;;;;15.32;10.82;;;26.30;69.20;;;;;;1887993;76;21532;-78
2021/12/17 14:12:54;;;;;;;13.30;11.57;;;26.20;69.10;;;;;;1888710;76;21630;-77
2021/12/17 14:15:28;;;;;;;14.70;10.98;;;26.20;69.50;;;;;;1889500;76;21220;-77
2021/12/17 14:18:02;;;;;;;15.38;11.63;;;26.20;69.80;;;;;;1889346;76;21066;-76
2021/12/17 14:20:35;;;;;;;17.35;11.33;;;26.20;69.70;;;;;;1869985;76;21196;-77
2021/12/17 14:23:09;;;;;;;15.13;11.38;;;26.10;69.90;;;;;;1893073;76;21170;-78
2021/12/17 14:25:42;;;;;;;16.65;11.65;;;26.10;70.20;;;;;;1867416;76;21141;-78
2021/12/17 14:28:15;;;;;;;14.90;11.50;;;26.00;70.20;;;;;;1864108;76;21178;-77
2021/12/17 14:30:48;;;;;;;15.13;11.65;;;26.10;70.60;;;;;;1889275;76;21211;-77
2021/12/17 14:33:21;;;;;;;15.50;11.93;;;26.00;70.90;;;;;;1891477;75;21180;-77
2021/12/17 14:35:55;;;;;;;16.90;12.18;;;26.00;70.70;;;;;;1890320;76;21067;-78
2021/12/17 14:38:28;;;;;;;18.02;12.85;;;25.90;70.90;;;;;;1889360;74;21631;-77
2021/12/17 14:41:01;;;;;;;16.80;11.93;;;25.90;70.60;;;;;;1886963;75;21196;-77
2021/12/17 14:43:33;;;;;;;17.40;12.78;;;25.90;70.90;;;;;;1889434;76;21142;-78
2021/12/17 14:48:50;;;;;;;17.12;13.00;;;25.90;71.40;;;;;;1850845;77;21579;-77
2021/12/17 15:02:10;;;;;;;17.37;14.05;;;25.70;72.10;;;;;;1874602;76;21239;-77
2021/12/17 15:04:18;;;;;;;21.10;14.63;;;25.70;72.20;;;;;;1888579;76;21237;-77
2021/12/17 15:06:57;;;;;;;20.68;14.35;;;25.60;72.30;;;;;;1890756;76;21521;-78
2021/12/17 15:09:28;;;;;;;22.95;15.78;;;25.60;72.20;;;;;;1891463;76;21102;-78
2021/12/17 15:12:01;;;;;;;17.02;15.25;;;25.60;72.10;;;;;;1891394;76;21180;-77
2021/12/17 15:14:31;;;;;;;17.57;15.68;;;25.60;72.40;;;;;;1891214;76;21172;-78
2021/12/17 15:17:02;;;;;;;21.12;16.05;;;25.50;72.30;;;;;;1889350;76;21107;-78
2021/12/17 15:19:34;;;;;;;21.17;16.85;;;25.50;72.70;;;;;;1891501;76;21126;-76
2021/12/17 15:22:05;;;;;;;20.02;16.85;;;25.50;72.50;;;;;;1891560;76;21105;-76
2021/12/17 15:24:37;;;;;;;21.62;16.95;;;25.50;72.80;;;;;;1891185;76;21168;-76
2021/12/17 15:27:08;;;;;;;20.92;18.15;;;25.50;73.20;;;;;;1890999;76;21098;-77
2021/12/17 15:29:40;;;;;;;23.12;18.65;;;25.40;73.00;;;;;;1890949;76;21170;-77
2021/12/17 15:32:11;;;;;;;23.70;18.42;;;25.40;73.00;;;;;;1891097;76;21173;-76
2021/12/17 15:34:42;;;;;;;23.83;18.73;;;25.40;72.90;;;;;;1891442;76;21050;-76
2021/12/17 15:37:13;;;;;;;21.90;18.70;;;25.30;73.20;;;;;;1891761;75;21193;-76
2021/12/17 15:39:48;;;;;;;27.77;20.00;;;25.30;73.20;;;;;;1886981;76;21170;-77
2021/12/17 15:42:16;;;;;;;24.47;19.35;;;25.30;73.00;;;;;;1890716;76;21204;-78
2021/12/17 15:44:47;;;;;;;24.45;20.12;;;25.30;73.40;;;;;;1848166;77;21602;-76
2021/12/17 15:47:18;;;;;;;25.95;20.80;;;25.30;73.50;;;;;;1851587;76;21141;-77
2021/12/17 15:49:51;;;;;;;26.73;21.87;;;25.30;73.70;;;;;;1891663;76;21232;-78
2021/12/17 15:52:22;;;;;;;26.45;21.75;;;25.20;73.60;;;;;;1891678;76;21180;-76
2021/12/17 15:54:53;;;;;;;27.90;21.73;;;25.20;73.50;;;;;;1890978;76;21117;-76
2021/12/17 15:57:24;;;;;;;24.70;20.90;;;25.10;73.90;;;;;;1878548;76;21152;-77
2021/12/17 15:59:54;;;;;;;31.00;22.87;;;25.10;73.70;;;;;;1881602;76;21460;-76
2021/12/17 16:02:26;;;;;;;27.75;22.65;;;25.10;73.80;;;;;;1877891;76;21644;-77
2021/12/17 16:04:56;;;;;;;29.23;22.48;;;25.00;73.80;;;;;;1891873;76;21062;-76
2021/12/17 16:07:27;;;;;;;28.47;22.58;;;25.00;74.00;;;;;;1881595;76;21170;-77
2021/12/17 16:22:41;;;;;;;30.37;24.67;;;24.90;74.20;;;;;;1864592;76;21657;-77
2021/12/17 16:25:12;;;;;;;29.55;24.20;;;24.90;74.80;;;;;;1825709;77;21203;-77
2021/12/17 16:27:43;;;;;;;28.60;24.05;;;24.80;74.90;;;;;;1886319;76;21123;-77
2021/12/17 16:30:14;;;;;;;29.50;24.77;;;24.80;75.10;;;;;;1888944;76;22619;-76
2021/12/17 16:32:45;;;;;;;30.52;23.67;;;24.80;74.90;;;;;;1886172;76;21649;-77
2021/12/17 16:35:16;;;;;;;30.75;24.87;;;24.80;75.10;;;;;;1887031;76;21632;-78